EGJA/ACI METAR and TAF weather

Enter ICAO airport designator
Station Type Date Time Source
EGJA METAR 2018/10/16 17:20 UTC NOAA

EGJA 161720Z 26009KT 9999 FEW013 BKN035 14/11 Q1018


Station Type Date Time Source
EGJA Decoded METAR 2018/10/16 17:20 UTC NOAA

Alderney / Channel Island, United Kingdom (EGJA) 49-43N 002-12W
Oct 16, 2018 - 01:20 PM EDT / 2018.10.16 1720 UTC
Wind: from the W (260 degrees) at 10 MPH (9 KT):0
Visibility: greater than 7 mile(s):0
Sky conditions: mostly cloudy
Temperature: 57 F (14 C)
Dew Point: 51 F (11 C)
Relative Humidity: 82%
Pressure (altimeter): 30.06 in. Hg (1018 hPa)
ob: EGJA 161720Z 26009KT 9999 FEW013 BKN035 14/11 Q1018
cycle: 17

Station Type Date Time Source
EGJA TAF UTC NOAA

Error!


Example: see airport list